sensor_id;sensor_type;location;lat;lon;timestamp;temperature;humidity
78516;SHT31;67815;51.990;5.688;2023-12-20T00:02:15;9.8;71.5
78516;SHT31;67815;51.990;5.688;2023-12-20T00:04:45;9.8;71.7
78516;SHT31;67815;51.990;5.688;2023-12-20T00:07:15;9.8;72.1
78516;SHT31;67815;51.990;5.688;2023-12-20T00:09:45;9.7;72.3
78516;SHT31;67815;51.990;5.688;2023-12-20T00:12:14;9.7;72.6
78516;SHT31;67815;51.990;5.688;2023-12-20T00:14:44;9.7;72.1
78516;SHT31;67815;51.990;5.688;2023-12-20T00:17:13;9.7;72.2
78516;SHT31;67815;51.990;5.688;2023-12-20T00:19:43;9.7;72.1
78516;SHT31;67815;51.990;5.688;2023-12-20T00:22:13;9.7;71.8
78516;SHT31;67815;51.990;5.688;2023-12-20T00:24:42;9.7;71.7
78516;SHT31;67815;51.990;5.688;2023-12-20T00:27:12;9.6;71.7
78516;SHT31;67815;51.990;5.688;2023-12-20T00:29:41;9.6;71.9
78516;SHT31;67815;51.990;5.688;2023-12-20T00:32:15;9.6;71.7
78516;SHT31;67815;51.990;5.688;2023-12-20T00:34:45;9.5;71.8
78516;SHT31;67815;51.990;5.688;2023-12-20T00:37:15;9.5;71.6
78516;SHT31;67815;51.990;5.688;2023-12-20T00:39:44;9.5;71.5
78516;SHT31;67815;51.990;5.688;2023-12-20T00:42:14;9.5;71.5
78516;SHT31;67815;51.990;5.688;2023-12-20T00:44:43;9.5;71.5
78516;SHT31;67815;51.990;5.688;2023-12-20T00:47:13;9.4;71.4
78516;SHT31;67815;51.990;5.688;2023-12-20T00:49:43;9.4;71.2
78516;SHT31;67815;51.990;5.688;2023-12-20T00:52:12;9.4;71.5
78516;SHT31;67815;51.990;5.688;2023-12-20T00:54:45;9.4;71.2
78516;SHT31;67815;51.990;5.688;2023-12-20T00:57:15;9.4;71.5
78516;SHT31;67815;51.990;5.688;2023-12-20T00:59:44;9.3;71.7
78516;SHT31;67815;51.990;5.688;2023-12-20T01:02:14;9.3;71.6
78516;SHT31;67815;51.990;5.688;2023-12-20T01:04:44;9.3;71.3
78516;SHT31;67815;51.990;5.688;2023-12-20T01:07:14;9.3;71.4
78516;SHT31;67815;51.990;5.688;2023-12-20T01:09:44;9.3;71.6
78516;SHT31;67815;51.990;5.688;2023-12-20T01:12:14;9.2;71.3
78516;SHT31;67815;51.990;5.688;2023-12-20T01:14:43;9.2;71.6
78516;SHT31;67815;51.990;5.688;2023-12-20T01:17:13;9.2;71.5
78516;SHT31;67815;51.990;5.688;2023-12-20T01:19:42;9.2;71.6
78516;SHT31;67815;51.990;5.688;2023-12-20T01:22:12;9.2;71.4
78516;SHT31;67815;51.990;5.688;2023-12-20T01:24:41;9.1;71.4
78516;SHT31;67815;51.990;5.688;2023-12-20T01:27:13;9.1;71.4
78516;SHT31;67815;51.990;5.688;2023-12-20T01:29:43;9.1;71.6
78516;SHT31;67815;51.990;5.688;2023-12-20T01:32:13;9.1;71.6
78516;SHT31;67815;51.990;5.688;2023-12-20T01:34:43;9.0;71.5
78516;SHT31;67815;51.990;5.688;2023-12-20T01:37:13;9.0;71.8
78516;SHT31;67815;51.990;5.688;2023-12-20T01:39:44;9.0;71.7
78516;SHT31;67815;51.990;5.688;2023-12-20T01:42:13;9.0;71.7
78516;SHT31;67815;51.990;5.688;2023-12-20T01:44:43;8.9;71.9
78516;SHT31;67815;51.990;5.688;2023-12-20T01:47:13;8.9;71.9
78516;SHT31;67815;51.990;5.688;2023-12-20T01:49:43;8.9;71.8
78516;SHT31;67815;51.990;5.688;2023-12-20T01:52:13;8.9;71.9
78516;SHT31;67815;51.990;5.688;2023-12-20T01:54:44;8.9;72.3
78516;SHT31;67815;51.990;5.688;2023-12-20T01:57:17;8.8;72.2
78516;SHT31;67815;51.990;5.688;2023-12-20T01:59:47;8.8;72.4
78516;SHT31;67815;51.990;5.688;2023-12-20T02:02:18;8.8;72.5
78516;SHT31;67815;51.990;5.688;2023-12-20T02:04:49;8.8;72.6
78516;SHT31;67815;51.990;5.688;2023-12-20T02:07:21;8.8;72.7
78516;SHT31;67815;51.990;5.688;2023-12-20T02:09:50;8.8;73.0
78516;SHT31;67815;51.990;5.688;2023-12-20T02:12:21;8.8;73.4
78516;SHT31;67815;51.990;5.688;2023-12-20T02:14:53;8.8;73.6
78516;SHT31;67815;51.990;5.688;2023-12-20T02:17:25;8.8;73.7
78516;SHT31;67815;51.990;5.688;2023-12-20T02:19:55;8.8;73.7
78516;SHT31;67815;51.990;5.688;2023-12-20T02:22:25;8.8;73.4
78516;SHT31;67815;51.990;5.688;2023-12-20T02:24:54;8.8;73.5
78516;SHT31;67815;51.990;5.688;2023-12-20T02:27:24;8.8;73.6
78516;SHT31;67815;51.990;5.688;2023-12-20T02:29:54;8.8;73.9
78516;SHT31;67815;51.990;5.688;2023-12-20T02:32:24;8.8;74.1
78516;SHT31;67815;51.990;5.688;2023-12-20T02:34:55;8.8;74.4
78516;SHT31;67815;51.990;5.688;2023-12-20T02:37:24;8.9;74.2
78516;SHT31;67815;51.990;5.688;2023-12-20T02:39:54;8.9;74.1
78516;SHT31;67815;51.990;5.688;2023-12-20T02:42:24;8.9;74.3
78516;SHT31;67815;51.990;5.688;2023-12-20T02:44:55;8.9;74.4
78516;SHT31;67815;51.990;5.688;2023-12-20T02:47:25;8.9;74.4
78516;SHT31;67815;51.990;5.688;2023-12-20T02:49:56;8.9;74.6
78516;SHT31;67815;51.990;5.688;2023-12-20T02:52:28;9.0;74.6
78516;SHT31;67815;51.990;5.688;2023-12-20T02:54:58;9.0;74.6
78516;SHT31;67815;51.990;5.688;2023-12-20T02:57:28;9.0;74.2
78516;SHT31;67815;51.990;5.688;2023-12-20T02:59:59;9.0;73.9
78516;SHT31;67815;51.990;5.688;2023-12-20T03:02:29;9.0;73.6
78516;SHT31;67815;51.990;5.688;2023-12-20T03:04:59;9.0;73.2
78516;SHT31;67815;51.990;5.688;2023-12-20T03:07:29;9.0;73.0
78516;SHT31;67815;51.990;5.688;2023-12-20T03:09:59;9.0;72.8
78516;SHT31;67815;51.990;5.688;2023-12-20T03:12:28;9.0;72.8
78516;SHT31;67815;51.990;5.688;2023-12-20T03:14:58;9.0;72.9
78516;SHT31;67815;51.990;5.688;2023-12-20T03:17:28;9.0;72.7
78516;SHT31;67815;51.990;5.688;2023-12-20T03:19:57;8.9;72.7
78516;SHT31;67815;51.990;5.688;2023-12-20T03:22:27;8.9;73.0
78516;SHT31;67815;51.990;5.688;2023-12-20T03:24:56;8.9;73.2
78516;SHT31;67815;51.990;5.688;2023-12-20T03:27:26;8.9;73.1
78516;SHT31;67815;51.990;5.688;2023-12-20T03:29:57;8.9;73.3
78516;SHT31;67815;51.990;5.688;2023-12-20T03:32:26;8.9;73.3
78516;SHT31;67815;51.990;5.688;2023-12-20T03:34:56;8.8;73.5
78516;SHT31;67815;51.990;5.688;2023-12-20T03:37:25;8.8;73.7
78516;SHT31;67815;51.990;5.688;2023-12-20T03:39:55;8.8;74.0
78516;SHT31;67815;51.990;5.688;2023-12-20T03:42:24;8.8;74.1
78516;SHT31;67815;51.990;5.688;2023-12-20T03:44:54;8.9;74.1
78516;SHT31;67815;51.990;5.688;2023-12-20T03:47:24;8.9;74.1
78516;SHT31;67815;51.990;5.688;2023-12-20T03:49:54;8.9;73.9
78516;SHT31;67815;51.990;5.688;2023-12-20T03:52:24;8.9;73.8
78516;SHT31;67815;51.990;5.688;2023-12-20T03:54:53;8.9;73.8
78516;SHT31;67815;51.990;5.688;2023-12-20T03:57:23;8.9;73.8
78516;SHT31;67815;51.990;5.688;2023-12-20T03:59:52;8.9;73.8
78516;SHT31;67815;51.990;5.688;2023-12-20T04:02:22;8.9;74.3
78516;SHT31;67815;51.990;5.688;2023-12-20T04:04:51;8.9;74.4
78516;SHT31;67815;51.990;5.688;2023-12-20T04:07:21;8.9;74.2
78516;SHT31;67815;51.990;5.688;2023-12-20T04:09:51;8.9;74.3
78516;SHT31;67815;51.990;5.688;2023-12-20T04:12:20;8.9;74.4
78516;SHT31;67815;51.990;5.688;2023-12-20T04:14:50;8.9;74.3
78516;SHT31;67815;51.990;5.688;2023-12-20T04:17:20;8.9;74.5
78516;SHT31;67815;51.990;5.688;2023-12-20T04:19:50;8.9;74.3
78516;SHT31;67815;51.990;5.688;2023-12-20T04:22:20;8.9;74.2
78516;SHT31;67815;51.990;5.688;2023-12-20T04:24:50;8.9;74.1
78516;SHT31;67815;51.990;5.688;2023-12-20T04:27:20;8.9;74.3
78516;SHT31;67815;51.990;5.688;2023-12-20T04:29:49;8.9;74.5
78516;SHT31;67815;51.990;5.688;2023-12-20T04:32:19;8.9;74.6
78516;SHT31;67815;51.990;5.688;2023-12-20T04:34:48;8.9;74.7
78516;SHT31;67815;51.990;5.688;2023-12-20T04:37:18;9.0;74.7
78516;SHT31;67815;51.990;5.688;2023-12-20T04:39:47;9.0;74.6
78516;SHT31;67815;51.990;5.688;2023-12-20T04:42:18;9.0;74.5
78516;SHT31;67815;51.990;5.688;2023-12-20T04:44:47;9.0;74.4
78516;SHT31;67815;51.990;5.688;2023-12-20T04:47:16;9.0;74.5
78516;SHT31;67815;51.990;5.688;2023-12-20T04:49:46;9.0;74.6
78516;SHT31;67815;51.990;5.688;2023-12-20T04:52:16;9.0;74.5
78516;SHT31;67815;51.990;5.688;2023-12-20T04:54:45;9.0;74.9
78516;SHT31;67815;51.990;5.688;2023-12-20T04:57:15;9.0;74.6
78516;SHT31;67815;51.990;5.688;2023-12-20T04:59:44;9.0;74.4
78516;SHT31;67815;51.990;5.688;2023-12-20T05:02:14;9.1;74.1
78516;SHT31;67815;51.990;5.688;2023-12-20T05:04:43;9.1;73.9
78516;SHT31;67815;51.990;5.688;2023-12-20T05:07:13;9.1;74.4
78516;SHT31;67815;51.990;5.688;2023-12-20T05:09:43;9.1;74.4
78516;SHT31;67815;51.990;5.688;2023-12-20T05:12:14;9.1;74.5
78516;SHT31;67815;51.990;5.688;2023-12-20T05:14:44;9.1;74.0
78516;SHT31;67815;51.990;5.688;2023-12-20T05:17:14;9.1;74.5
78516;SHT31;67815;51.990;5.688;2023-12-20T05:19:44;9.1;74.8
78516;SHT31;67815;51.990;5.688;2023-12-20T05:22:14;9.2;74.5
78516;SHT31;67815;51.990;5.688;2023-12-20T05:24:43;9.2;74.2
78516;SHT31;67815;51.990;5.688;2023-12-20T05:27:13;9.2;74.5
78516;SHT31;67815;51.990;5.688;2023-12-20T05:29:43;9.2;74.5
78516;SHT31;67815;51.990;5.688;2023-12-20T05:32:14;9.2;74.7
78516;SHT31;67815;51.990;5.688;2023-12-20T05:34:44;9.2;74.7
78516;SHT31;67815;51.990;5.688;2023-12-20T05:37:13;9.3;74.5
78516;SHT31;67815;51.990;5.688;2023-12-20T05:39:43;9.3;74.4
78516;SHT31;67815;51.990;5.688;2023-12-20T05:42:13;9.3;74.5
78516;SHT31;67815;51.990;5.688;2023-12-20T05:44:44;9.3;74.4
78516;SHT31;67815;51.990;5.688;2023-12-20T05:47:13;9.3;74.0
78516;SHT31;67815;51.990;5.688;2023-12-20T05:49:44;9.3;74.1
78516;SHT31;67815;51.990;5.688;2023-12-20T05:52:13;9.4;73.9
78516;SHT31;67815;51.990;5.688;2023-12-20T05:54:43;9.4;73.6
78516;SHT31;67815;51.990;5.688;2023-12-20T05:57:14;9.4;73.5
78516;SHT31;67815;51.990;5.688;2023-12-20T05:59:43;9.4;73.3
78516;SHT31;67815;51.990;5.688;2023-12-20T06:02:14;9.4;73.3
78516;SHT31;67815;51.990;5.688;2023-12-20T06:04:43;9.4;73.3
78516;SHT31;67815;51.990;5.688;2023-12-20T06:07:15;9.4;73.4
78516;SHT31;67815;51.990;5.688;2023-12-20T06:09:45;9.4;72.8
78516;SHT31;67815;51.990;5.688;2023-12-20T06:12:14;9.4;73.1
78516;SHT31;67815;51.990;5.688;2023-12-20T06:14:44;9.4;72.7
78516;SHT31;67815;51.990;5.688;2023-12-20T06:17:13;9.4;72.5
78516;SHT31;67815;51.990;5.688;2023-12-20T06:19:44;9.4;73.0
78516;SHT31;67815;51.990;5.688;2023-12-20T06:22:15;9.4;72.4
78516;SHT31;67815;51.990;5.688;2023-12-20T06:24:45;9.4;72.9
78516;SHT31;67815;51.990;5.688;2023-12-20T06:27:15;9.4;73.6
78516;SHT31;67815;51.990;5.688;2023-12-20T06:29:46;9.4;73.2
78516;SHT31;67815;51.990;5.688;2023-12-20T06:32:16;9.4;73.1
78516;SHT31;67815;51.990;5.688;2023-12-20T06:34:46;9.4;73.0
78516;SHT31;67815;51.990;5.688;2023-12-20T06:37:16;9.4;73.0
78516;SHT31;67815;51.990;5.688;2023-12-20T06:39:45;9.4;72.1
78516;SHT31;67815;51.990;5.688;2023-12-20T06:42:15;9.4;72.4
78516;SHT31;67815;51.990;5.688;2023-12-20T06:44:45;9.4;72.8
78516;SHT31;67815;51.990;5.688;2023-12-20T06:47:16;9.4;73.3
78516;SHT31;67815;51.990;5.688;2023-12-20T06:49:45;9.4;72.6
78516;SHT31;67815;51.990;5.688;2023-12-20T06:52:15;9.4;72.5
78516;SHT31;67815;51.990;5.688;2023-12-20T06:54:46;9.4;73.2
78516;SHT31;67815;51.990;5.688;2023-12-20T06:57:16;9.4;73.3
78516;SHT31;67815;51.990;5.688;2023-12-20T06:59:50;9.4;72.5
78516;SHT31;67815;51.990;5.688;2023-12-20T07:02:19;9.4;72.6
78516;SHT31;67815;51.990;5.688;2023-12-20T07:04:50;9.4;72.9
78516;SHT31;67815;51.990;5.688;2023-12-20T07:07:20;9.4;72.7
78516;SHT31;67815;51.990;5.688;2023-12-20T07:09:52;9.4;72.3
78516;SHT31;67815;51.990;5.688;2023-12-20T07:12:21;9.4;72.1
78516;SHT31;67815;51.990;5.688;2023-12-20T07:14:51;9.4;72.2
78516;SHT31;67815;51.990;5.688;2023-12-20T07:17:21;9.4;72.7
78516;SHT31;67815;51.990;5.688;2023-12-20T07:19:50;9.4;72.9
78516;SHT31;67815;51.990;5.688;2023-12-20T07:22:20;9.4;73.0
78516;SHT31;67815;51.990;5.688;2023-12-20T07:24:50;9.4;72.5
78516;SHT31;67815;51.990;5.688;2023-12-20T07:27:25;9.4;72.8
78516;SHT31;67815;51.990;5.688;2023-12-20T07:29:55;9.4;72.7
78516;SHT31;67815;51.990;5.688;2023-12-20T07:32:24;9.4;72.7
78516;SHT31;67815;51.990;5.688;2023-12-20T07:34:56;9.4;72.7
78516;SHT31;67815;51.990;5.688;2023-12-20T07:37:26;9.4;72.8
78516;SHT31;67815;51.990;5.688;2023-12-20T07:39:56;9.5;72.4
78516;SHT31;67815;51.990;5.688;2023-12-20T07:42:25;9.5;72.8
78516;SHT31;67815;51.990;5.688;2023-12-20T07:44:55;9.5;72.7
78516;SHT31;67815;51.990;5.688;2023-12-20T07:47:25;9.5;73.2
78516;SHT31;67815;51.990;5.688;2023-12-20T07:49:56;9.5;72.7
78516;SHT31;67815;51.990;5.688;2023-12-20T07:52:26;9.5;72.9
78516;SHT31;67815;51.990;5.688;2023-12-20T07:54:55;9.5;73.1
78516;SHT31;67815;51.990;5.688;2023-12-20T07:57:28;9.5;73.0
78516;SHT31;67815;51.990;5.688;2023-12-20T07:59:58;9.5;73.1
78516;SHT31;67815;51.990;5.688;2023-12-20T08:02:27;9.5;73.1
78516;SHT31;67815;51.990;5.688;2023-12-20T08:04:57;9.5;73.1
78516;SHT31;67815;51.990;5.688;2023-12-20T08:07:26;9.5;73.2
78516;SHT31;67815;51.990;5.688;2023-12-20T08:09:56;9.6;72.9
78516;SHT31;67815;51.990;5.688;2023-12-20T08:12:26;9.6;73.0
78516;SHT31;67815;51.990;5.688;2023-12-20T08:14:56;9.6;72.9
78516;SHT31;67815;51.990;5.688;2023-12-20T08:17:27;9.6;73.2
78516;SHT31;67815;51.990;5.688;2023-12-20T08:19:57;9.6;72.2
78516;SHT31;67815;51.990;5.688;2023-12-20T08:22:27;9.6;72.6
78516;SHT31;67815;51.990;5.688;2023-12-20T08:24:57;9.6;72.5
78516;SHT31;67815;51.990;5.688;2023-12-20T08:27:28;9.6;73.3
78516;SHT31;67815;51.990;5.688;2023-12-20T08:29:59;9.6;72.1
78516;SHT31;67815;51.990;5.688;2023-12-20T08:32:29;9.6;72.5
78516;SHT31;67815;51.990;5.688;2023-12-20T08:34:59;9.6;72.8
78516;SHT31;67815;51.990;5.688;2023-12-20T08:37:29;9.7;72.5
78516;SHT31;67815;51.990;5.688;2023-12-20T08:39:59;9.7;73.0
78516;SHT31;67815;51.990;5.688;2023-12-20T08:42:28;9.7;72.3
78516;SHT31;67815;51.990;5.688;2023-12-20T08:44:59;9.7;72.7
78516;SHT31;67815;51.990;5.688;2023-12-20T08:47:31;9.7;72.8
78516;SHT31;67815;51.990;5.688;2023-12-20T08:50:03;9.7;72.5
78516;SHT31;67815;51.990;5.688;2023-12-20T08:52:32;9.8;73.0
78516;SHT31;67815;51.990;5.688;2023-12-20T08:55:02;9.8;72.6
78516;SHT31;67815;51.990;5.688;2023-12-20T08:57:33;9.8;72.6
78516;SHT31;67815;51.990;5.688;2023-12-20T09:00:03;9.8;72.1
78516;SHT31;67815;51.990;5.688;2023-12-20T09:02:37;9.8;72.2
78516;SHT31;67815;51.990;5.688;2023-12-20T09:05:08;9.8;72.7
78516;SHT31;67815;51.990;5.688;2023-12-20T09:07:38;9.8;72.7
78516;SHT31;67815;51.990;5.688;2023-12-20T09:10:08;9.8;72.6
78516;SHT31;67815;51.990;5.688;2023-12-20T09:12:39;9.8;72.8
78516;SHT31;67815;51.990;5.688;2023-12-20T09:15:10;9.8;72.8
78516;SHT31;67815;51.990;5.688;2023-12-20T09:17:39;9.8;73.6
78516;SHT31;67815;51.990;5.688;2023-12-20T09:20:12;9.8;73.9
78516;SHT31;67815;51.990;5.688;2023-12-20T09:22:42;9.8;74.1
78516;SHT31;67815;51.990;5.688;2023-12-20T09:25:12;9.8;74.0
78516;SHT31;67815;51.990;5.688;2023-12-20T09:27:43;9.8;74.4
78516;SHT31;67815;51.990;5.688;2023-12-20T09:30:14;9.8;74.4
78516;SHT31;67815;51.990;5.688;2023-12-20T09:32:44;9.8;74.2
78516;SHT31;67815;51.990;5.688;2023-12-20T09:35:14;9.8;74.5
78516;SHT31;67815;51.990;5.688;2023-12-20T09:37:44;9.8;74.8
78516;SHT31;67815;51.990;5.688;2023-12-20T09:40:20;9.8;74.4
78516;SHT31;67815;51.990;5.688;2023-12-20T09:42:58;9.8;74.8
78516;SHT31;67815;51.990;5.688;2023-12-20T09:45:28;9.8;74.7
78516;SHT31;67815;51.990;5.688;2023-12-20T09:48:01;9.8;74.4
78516;SHT31;67815;51.990;5.688;2023-12-20T09:50:33;9.8;74.7
78516;SHT31;67815;51.990;5.688;2023-12-20T09:53:05;9.8;75.1
78516;SHT31;67815;51.990;5.688;2023-12-20T09:55:38;9.8;74.3
78516;SHT31;67815;51.990;5.688;2023-12-20T09:58:09;9.8;74.8
78516;SHT31;67815;51.990;5.688;2023-12-20T10:00:38;9.8;74.6
78516;SHT31;67815;51.990;5.688;2023-12-20T10:03:11;9.8;74.7
78516;SHT31;67815;51.990;5.688;2023-12-20T10:05:43;9.8;74.8
78516;SHT31;67815;51.990;5.688;2023-12-20T10:08:15;9.8;74.4
78516;SHT31;67815;51.990;5.688;2023-12-20T10:10:44;9.8;75.0
78516;SHT31;67815;51.990;5.688;2023-12-20T10:13:15;9.8;75.1
78516;SHT31;67815;51.990;5.688;2023-12-20T10:15:45;9.9;75.4
78516;SHT31;67815;51.990;5.688;2023-12-20T10:18:15;9.9;75.0
78516;SHT31;67815;51.990;5.688;2023-12-20T10:20:45;9.9;75.1
78516;SHT31;67815;51.990;5.688;2023-12-20T10:23:15;9.9;74.5
78516;SHT31;67815;51.990;5.688;2023-12-20T10:25:49;10.0;74.3
78516;SHT31;67815;51.990;5.688;2023-12-20T10:28:25;10.0;74.6
78516;SHT31;67815;51.990;5.688;2023-12-20T10:30:55;10.0;74.8
78516;SHT31;67815;51.990;5.688;2023-12-20T10:33:27;10.1;74.6
78516;SHT31;67815;51.990;5.688;2023-12-20T10:35:59;10.1;74.7
78516;SHT31;67815;51.990;5.688;2023-12-20T10:38:30;10.1;75.1
78516;SHT31;67815;51.990;5.688;2023-12-20T10:41:01;10.1;73.9
78516;SHT31;67815;51.990;5.688;2023-12-20T10:43:33;10.1;74.4
78516;SHT31;67815;51.990;5.688;2023-12-20T10:46:05;10.1;73.5
78516;SHT31;67815;51.990;5.688;2023-12-20T10:48:36;10.2;73.9
78516;SHT31;67815;51.990;5.688;2023-12-20T10:51:08;10.2;74.6
78516;SHT31;67815;51.990;5.688;2023-12-20T10:53:39;10.2;74.2
78516;SHT31;67815;51.990;5.688;2023-12-20T10:56:15;10.2;73.4
78516;SHT31;67815;51.990;5.688;2023-12-20T10:58:48;10.2;74.1
78516;SHT31;67815;51.990;5.688;2023-12-20T11:01:21;10.2;73.8
78516;SHT31;67815;51.990;5.688;2023-12-20T11:03:53;10.3;74.1
78516;SHT31;67815;51.990;5.688;2023-12-20T11:06:32;10.3;73.1
78516;SHT31;67815;51.990;5.688;2023-12-20T11:09:08;10.3;73.6
78516;SHT31;67815;51.990;5.688;2023-12-20T11:11:55;10.3;74.9
78516;SHT31;67815;51.990;5.688;2023-12-20T11:14:30;10.3;74.2
78516;SHT31;67815;51.990;5.688;2023-12-20T11:17:09;10.4;74.1
78516;SHT31;67815;51.990;5.688;2023-12-20T11:20:10;10.4;73.8
78516;SHT31;67815;51.990;5.688;2023-12-20T11:22:54;10.4;73.1
78516;SHT31;67815;51.990;5.688;2023-12-20T11:25:24;10.5;72.9
78516;SHT31;67815;51.990;5.688;2023-12-20T11:28:11;10.5;73.7
78516;SHT31;67815;51.990;5.688;2023-12-20T11:30:51;10.5;72.7
78516;SHT31;67815;51.990;5.688;2023-12-20T11:33:25;10.6;73.2
78516;SHT31;67815;51.990;5.688;2023-12-20T11:35:58;10.6;73.2
78516;SHT31;67815;51.990;5.688;2023-12-20T11:38:35;10.6;71.8
78516;SHT31;67815;51.990;5.688;2023-12-20T11:41:07;10.6;71.8
78516;SHT31;67815;51.990;5.688;2023-12-20T11:43:38;10.6;71.9
78516;SHT31;67815;51.990;5.688;2023-12-20T11:46:09;10.7;70.4
78516;SHT31;67815;51.990;5.688;2023-12-20T11:48:40;10.7;71.2
78516;SHT31;67815;51.990;5.688;2023-12-20T11:51:12;10.7;71.7
78516;SHT31;67815;51.990;5.688;2023-12-20T11:53:42;10.7;71.3
78516;SHT31;67815;51.990;5.688;2023-12-20T11:56:12;10.7;71.4
78516;SHT31;67815;51.990;5.688;2023-12-20T11:58:44;10.7;70.7
78516;SHT31;67815;51.990;5.688;2023-12-20T12:01:14;10.7;71.0
78516;SHT31;67815;51.990;5.688;2023-12-20T12:03:44;10.8;70.2
78516;SHT31;67815;51.990;5.688;2023-12-20T12:06:13;10.8;70.7
78516;SHT31;67815;51.990;5.688;2023-12-20T12:08:43;10.8;70.9
78516;SHT31;67815;51.990;5.688;2023-12-20T12:11:13;10.8;71.2
78516;SHT31;67815;51.990;5.688;2023-12-20T12:13:44;10.8;70.4
78516;SHT31;67815;51.990;5.688;2023-12-20T12:16:17;10.9;70.9
78516;SHT31;67815;51.990;5.688;2023-12-20T12:18:57;10.9;70.1
78516;SHT31;67815;51.990;5.688;2023-12-20T12:21:28;10.9;70.8
78516;SHT31;67815;51.990;5.688;2023-12-20T12:24:09;10.9;71.0
78516;SHT31;67815;51.990;5.688;2023-12-20T12:26:41;11.0;71.5
78516;SHT31;67815;51.990;5.688;2023-12-20T12:29:13;11.0;71.2
78516;SHT31;67815;51.990;5.688;2023-12-20T12:31:43;11.0;71.0
78516;SHT31;67815;51.990;5.688;2023-12-20T12:34:12;11.0;70.5
78516;SHT31;67815;51.990;5.688;2023-12-20T12:36:44;11.1;70.3
78516;SHT31;67815;51.990;5.688;2023-12-20T12:39:18;11.1;70.1
78516;SHT31;67815;51.990;5.688;2023-12-20T12:41:47;11.1;70.9
78516;SHT31;67815;51.990;5.688;2023-12-20T12:44:17;11.1;71.5
78516;SHT31;67815;51.990;5.688;2023-12-20T12:46:48;11.1;71.1
78516;SHT31;67815;51.990;5.688;2023-12-20T12:49:19;11.1;70.4
78516;SHT31;67815;51.990;5.688;2023-12-20T12:51:49;11.1;69.9
78516;SHT31;67815;51.990;5.688;2023-12-20T12:54:18;11.1;70.0
78516;SHT31;67815;51.990;5.688;2023-12-20T12:56:48;11.1;70.6
78516;SHT31;67815;51.990;5.688;2023-12-20T12:59:19;11.1;70.0
78516;SHT31;67815;51.990;5.688;2023-12-20T13:01:49;11.1;69.8
78516;SHT31;67815;51.990;5.688;2023-12-20T13:04:18;11.1;70.6
78516;SHT31;67815;51.990;5.688;2023-12-20T13:06:48;11.1;69.8
78516;SHT31;67815;51.990;5.688;2023-12-20T13:09:17;11.1;70.6
78516;SHT31;67815;51.990;5.688;2023-12-20T13:11:48;11.1;69.9
78516;SHT31;67815;51.990;5.688;2023-12-20T13:14:17;11.1;70.2
78516;SHT31;67815;51.990;5.688;2023-12-20T13:16:47;11.1;69.7
78516;SHT31;67815;51.990;5.688;2023-12-20T13:19:16;11.1;69.8
78516;SHT31;67815;51.990;5.688;2023-12-20T13:21:46;11.1;70.0
78516;SHT31;67815;51.990;5.688;2023-12-20T13:24:16;11.1;70.1
78516;SHT31;67815;51.990;5.688;2023-12-20T13:26:46;11.1;70.7
78516;SHT31;67815;51.990;5.688;2023-12-20T13:29:15;11.1;70.4
78516;SHT31;67815;51.990;5.688;2023-12-20T13:31:45;11.2;70.3
78516;SHT31;67815;51.990;5.688;2023-12-20T13:34:15;11.2;70.5
78516;SHT31;67815;51.990;5.688;2023-12-20T13:36:47;11.2;70.4
78516;SHT31;67815;51.990;5.688;2023-12-20T13:39:18;11.2;70.2
78516;SHT31;67815;51.990;5.688;2023-12-20T13:41:49;11.2;70.6
78516;SHT31;67815;51.990;5.688;2023-12-20T13:44:18;11.2;70.6
78516;SHT31;67815;51.990;5.688;2023-12-20T13:46:48;11.2;70.4
78516;SHT31;67815;51.990;5.688;2023-12-20T13:49:19;11.2;69.9
78516;SHT31;67815;51.990;5.688;2023-12-20T13:51:48;11.2;70.4
78516;SHT31;67815;51.990;5.688;2023-12-20T13:54:18;11.2;70.4
78516;SHT31;67815;51.990;5.688;2023-12-20T13:56:50;11.2;69.6
78516;SHT31;67815;51.990;5.688;2023-12-20T13:59:21;11.2;68.9
78516;SHT31;67815;51.990;5.688;2023-12-20T14:01:51;11.2;68.8
78516;SHT31;67815;51.990;5.688;2023-12-20T14:04:20;11.2;68.5
78516;SHT31;67815;51.990;5.688;2023-12-20T14:06:50;11.2;69.3
78516;SHT31;67815;51.990;5.688;2023-12-20T14:09:19;11.2;69.1
78516;SHT31;67815;51.990;5.688;2023-12-20T14:11:49;11.2;68.5
78516;SHT31;67815;51.990;5.688;2023-12-20T14:14:18;11.2;69.3
78516;SHT31;67815;51.990;5.688;2023-12-20T14:16:48;11.2;69.6
78516;SHT31;67815;51.990;5.688;2023-12-20T14:19:18;11.2;69.1
78516;SHT31;67815;51.990;5.688;2023-12-20T14:21:48;11.2;69.1
78516;SHT31;67815;51.990;5.688;2023-12-20T14:24:18;11.2;69.1
78516;SHT31;67815;51.990;5.688;2023-12-20T14:26:47;11.3;68.6
78516;SHT31;67815;51.990;5.688;2023-12-20T14:29:17;11.3;68.6
78516;SHT31;67815;51.990;5.688;2023-12-20T14:31:47;11.3;69.0
78516;SHT31;67815;51.990;5.688;2023-12-20T14:34:17;11.3;68.6
78516;SHT31;67815;51.990;5.688;2023-12-20T14:36:46;11.3;69.2
78516;SHT31;67815;51.990;5.688;2023-12-20T14:39:17;11.3;68.6
78516;SHT31;67815;51.990;5.688;2023-12-20T14:41:46;11.3;68.7
78516;SHT31;67815;51.990;5.688;2023-12-20T14:44:16;11.3;69.3
78516;SHT31;67815;51.990;5.688;2023-12-20T14:46:46;11.3;69.3
78516;SHT31;67815;51.990;5.688;2023-12-20T14:49:15;11.3;69.2
78516;SHT31;67815;51.990;5.688;2023-12-20T14:51:45;11.3;69.5
78516;SHT31;67815;51.990;5.688;2023-12-20T14:54:15;11.3;68.8
78516;SHT31;67815;51.990;5.688;2023-12-20T14:56:47;11.3;69.8
78516;SHT31;67815;51.990;5.688;2023-12-20T14:59:17;11.3;69.2
78516;SHT31;67815;51.990;5.688;2023-12-20T15:01:47;11.3;69.7
78516;SHT31;67815;51.990;5.688;2023-12-20T15:04:16;11.3;69.5
78516;SHT31;67815;51.990;5.688;2023-12-20T15:06:48;11.3;69.2
78516;SHT31;67815;51.990;5.688;2023-12-20T15:09:17;11.3;69.2
78516;SHT31;67815;51.990;5.688;2023-12-20T15:11:47;11.3;69.7
78516;SHT31;67815;51.990;5.688;2023-12-20T15:14:17;11.3;69.5
78516;SHT31;67815;51.990;5.688;2023-12-20T15:16:47;11.3;69.9
78516;SHT31;67815;51.990;5.688;2023-12-20T15:19:17;11.3;69.4
78516;SHT31;67815;51.990;5.688;2023-12-20T15:21:46;11.3;69.9
78516;SHT31;67815;51.990;5.688;2023-12-20T15:24:17;11.3;69.5
78516;SHT31;67815;51.990;5.688;2023-12-20T15:26:52;11.3;69.7
78516;SHT31;67815;51.990;5.688;2023-12-20T15:29:24;11.3;69.9
78516;SHT31;67815;51.990;5.688;2023-12-20T15:31:53;11.3;70.2
78516;SHT31;67815;51.990;5.688;2023-12-20T15:34:23;11.2;70.2
78516;SHT31;67815;51.990;5.688;2023-12-20T15:36:54;11.2;69.9
78516;SHT31;67815;51.990;5.688;2023-12-20T15:39:23;11.2;70.7
78516;SHT31;67815;51.990;5.688;2023-12-20T15:41:53;11.2;70.7
78516;SHT31;67815;51.990;5.688;2023-12-20T15:44:23;11.2;70.7
78516;SHT31;67815;51.990;5.688;2023-12-20T15:46:53;11.2;70.7
78516;SHT31;67815;51.990;5.688;2023-12-20T15:49:23;11.2;71.5
78516;SHT31;67815;51.990;5.688;2023-12-20T15:51:52;11.2;71.8
78516;SHT31;67815;51.990;5.688;2023-12-20T15:54:24;11.2;72.0
78516;SHT31;67815;51.990;5.688;2023-12-20T15:56:54;11.2;71.9
78516;SHT31;67815;51.990;5.688;2023-12-20T15:59:23;11.2;72.3
78516;SHT31;67815;51.990;5.688;2023-12-20T16:01:53;11.1;72.6
78516;SHT31;67815;51.990;5.688;2023-12-20T16:04:22;11.1;72.2
78516;SHT31;67815;51.990;5.688;2023-12-20T16:06:52;11.1;72.9
78516;SHT31;67815;51.990;5.688;2023-12-20T16:09:22;11.1;72.7
78516;SHT31;67815;51.990;5.688;2023-12-20T16:11:52;11.1;73.3
78516;SHT31;67815;51.990;5.688;2023-12-20T16:14:21;11.1;73.3
78516;SHT31;67815;51.990;5.688;2023-12-20T16:16:53;11.1;73.5
78516;SHT31;67815;51.990;5.688;2023-12-20T16:19:23;11.1;73.5
78516;SHT31;67815;51.990;5.688;2023-12-20T16:21:52;11.1;73.2
78516;SHT31;67815;51.990;5.688;2023-12-20T16:24:22;11.0;73.5
78516;SHT31;67815;51.990;5.688;2023-12-20T16:26:51;11.0;73.5
78516;SHT31;67815;51.990;5.688;2023-12-20T16:29:21;11.0;73.8
78516;SHT31;67815;51.990;5.688;2023-12-20T16:31:51;11.0;73.9
78516;SHT31;67815;51.990;5.688;2023-12-20T16:34:20;11.0;73.6